Time;durP1;ratioP1;P1;durP2;ratioP2;P2;SDS_P1;SDS_P2;PMS_P1;PMS_P2;Temp;Humidity;BMP_temperature;BMP_pressure;BME280_temperature;BME280_humidity;BME280_pressure;Samples;Min_cycle;Max_cycle;Signal;HPM_P1;HPM_P2
2022/12/31 00:02:24;;;;;;;8.15;1.52;;;;;;;9.94;100.00;99676.84;4963055;28;20496;-78
2022/12/31 00:04:55;;;;;;;6.13;1.30;;;;;;;9.91;100.00;99673.34;4965630;28;20626;-80
2022/12/31 00:07:23;;;;;;;6.00;1.23;;;;;;;9.91;100.00;99673.34;4967118;28;20425;-80
2022/12/31 00:09:52;;;;;;;2.05;0.68;;;;;;;9.89;100.00;99673.31;4963762;28;20042;-79
2022/12/31 00:12:20;;;;;;;3.05;0.98;;;;;;;9.89;100.00;99680.19;4962051;28;20062;-77
2022/12/31 00:14:49;;;;;;;14.80;0.98;;;;;;;9.86;100.00;99674.13;4967371;28;20046;-78
2022/12/31 00:17:18;;;;;;;1.83;0.65;;;;;;;9.86;100.00;99681.88;4966143;28;20515;-78
2022/12/31 00:19:48;;;;;;;2.78;0.93;;;;;;;9.88;100.00;99683.63;4963966;28;20054;-81
2022/12/31 00:22:17;;;;;;;4.45;0.80;;;;;;;9.85;100.00;99687.91;4967583;28;20496;-80
2022/12/31 00:24:45;;;;;;;5.15;1.00;;;;;;;9.85;100.00;99702.53;4965853;28;20059;-81
2022/12/31 00:27:14;;;;;;;4.32;1.02;;;;;;;9.82;100.00;99711.09;4967397;28;20058;-80
2022/12/31 00:29:43;;;;;;;6.53;1.08;;;;;;;9.78;100.00;99703.28;4967205;28;20386;-79
2022/12/31 00:32:12;;;;;;;7.15;1.00;;;;;;;9.74;100.00;99704.09;4965345;28;20507;-80
2022/12/31 00:34:41;;;;;;;1.70;0.50;;;;;;;9.71;100.00;99710.09;4967905;28;20133;-81
2022/12/31 00:37:12;;;;;;;3.72;1.17;;;;;;;9.69;100.00;99710.88;4967523;28;20057;-80
2022/12/31 00:39:41;;;;;;;2.15;0.75;;;;;;;9.68;100.00;99714.31;4968398;28;20049;-80
2022/12/31 00:42:11;;;;;;;0.88;0.70;;;;;;;9.68;100.00;99717.75;4966107;28;20075;-80
2022/12/31 00:44:39;;;;;;;5.38;1.00;;;;;;;9.68;100.00;99717.75;4966316;28;20058;-79
2022/12/31 00:47:08;;;;;;;2.47;0.60;;;;;;;9.65;100.00;99715.13;4968821;28;20659;-76
2022/12/31 00:49:43;;;;;;;5.38;1.17;;;;;;;9.63;100.00;99709.06;4966072;28;20059;-76
2022/12/31 00:52:15;;;;;;;6.15;1.25;;;;;;;9.51;100.00;99711.47;4963127;28;20072;-81
2022/12/31 00:54:44;;;;;;;2.30;1.00;;;;;;;9.48;100.00;99703.66;4968484;28;20102;-74
2022/12/31 00:57:12;;;;;;;2.17;0.82;;;;;;;9.48;100.00;99706.22;4965589;28;20051;-78
2022/12/31 00:59:41;;;;;;;1.73;0.63;;;;;;;9.42;100.00;99715.63;4965681;28;20108;-76
2022/12/31 01:02:10;;;;;;;2.50;0.75;;;;;;;9.38;100.00;99711.22;4966399;28;20042;-76
2022/12/31 01:04:39;;;;;;;3.83;1.00;;;;;;;9.31;100.00;99711.09;4960747;28;20065;-77
2022/12/31 01:07:07;;;;;;;3.13;1.52;;;;;;;9.31;100.00;99719.72;4966026;28;20485;-78
2022/12/31 01:09:37;;;;;;;2.83;0.77;;;;;;;9.28;100.00;99709.34;4964440;28;20428;-80
2022/12/31 01:12:07;;;;;;;1.10;0.60;;;;;;;9.26;100.00;99717.91;4965372;28;20424;-80
2022/12/31 01:14:35;;;;;;;3.85;0.88;;;;;;;9.24;100.00;99720.44;4966941;28;20505;-80
2022/12/31 01:17:04;;;;;;;2.97;0.70;;;;;;;9.23;100.00;99718.69;4967624;28;20043;-79
2022/12/31 01:19:33;;;;;;;1.67;0.60;;;;;;;9.20;100.00;99723.81;4967524;28;20054;-79
2022/12/31 01:22:01;;;;;;;3.40;0.68;;;;;;;9.16;100.00;99724.59;4965571;28;20087;-81
2022/12/31 01:24:30;;;;;;;3.55;0.70;;;;;;;9.17;100.00;99734.94;4970898;28;20047;-81
2022/12/31 01:27:00;;;;;;;3.70;0.90;;;;;;;9.19;100.00;99735.00;4970059;28;21014;-79
2022/12/31 01:29:28;;;;;;;2.85;0.80;;;;;;;9.20;100.00;99728.97;4967814;28;20118;-81
2022/12/31 01:31:57;;;;;;;2.17;0.95;;;;;;;9.23;100.00;99739.34;4970416;28;20110;-80
2022/12/31 01:34:26;;;;;;;2.47;0.85;;;;;;;9.19;100.00;99743.59;4967775;28;20688;-79
2022/12/31 01:36:54;;;;;;;1.58;0.70;;;;;;;9.12;100.00;99752.06;4969232;28;20456;-81
2022/12/31 01:39:23;;;;;;;2.58;0.80;;;;;;;9.06;100.00;99753.66;4972092;28;20058;-80
2022/12/31 01:41:51;;;;;;;1.77;0.70;;;;;;;8.99;100.00;99750.94;4970572;28;20058;-82
2022/12/31 01:44:54;;;;;;;2.35;0.98;;;;;;;8.96;100.00;99750.91;4973321;28;20038;-79
2022/12/31 01:47:37;;;;;;;2.03;0.60;;;;;;;8.93;100.00;99740.53;4966828;28;20055;-80
2022/12/31 01:50:11;;;;;;;2.75;0.93;;;;;;;8.91;100.00;99749.94;4973565;28;20055;-81
2022/12/31 01:52:42;;;;;;;3.45;0.68;;;;;;;8.91;100.00;99757.69;4973602;28;20066;-80
2022/12/31 01:55:15;;;;;;;1.65;0.60;;;;;;;8.89;100.00;99764.50;4972981;28;20051;-78
2022/12/31 01:57:47;;;;;;;1.40;0.77;;;;;;;8.88;100.00;99757.59;4970117;28;20083;-81
2022/12/31 02:00:18;;;;;;;5.45;0.98;;;;;;;8.87;100.00;99757.59;4969771;28;20054;-81
2022/12/31 02:02:47;;;;;;;0.60;0.45;;;;;;;8.81;100.00;99755.72;4965083;28;20051;-77
2022/12/31 02:05:34;;;;;;;1.50;0.55;;;;;;;8.81;100.00;99764.34;4974385;28;20852;-81
2022/12/31 02:08:04;;;;;;;3.55;0.90;;;;;;;8.81;100.00;99768.63;4963621;28;20643;-81
2022/12/31 02:10:32;;;;;;;4.53;0.70;;;;;;;8.79;100.00;99768.59;4966495;28;20101;-79
2022/12/31 02:13:02;;;;;;;3.00;0.70;;;;;;;8.81;100.00;99763.47;4975559;28;20053;-79
2022/12/31 02:15:40;;;;;;;1.15;0.43;;;;;;;8.78;100.00;99760.84;4972259;28;20046;-83
2022/12/31 02:18:18;;;;;;;3.78;1.00;;;;;;;8.77;100.00;99775.44;4969001;28;20522;-84
2022/12/31 02:21:25;;;;;;;4.28;0.70;;;;;;;8.76;100.00;99783.16;4975290;28;20417;-83
2022/12/31 02:24:44;;;;;;;1.73;0.57;;;;;;;8.72;100.00;99776.19;4969618;28;20051;-80
2022/12/31 02:27:19;;;;;;;2.22;0.80;;;;;;;8.70;100.00;99777.84;4970609;28;20693;-78
2022/12/31 02:30:07;;;;;;;5.32;1.33;;;;;;;8.70;100.00;99776.13;4968927;28;20560;-81
2022/12/31 02:33:04;;;;;;;4.03;0.50;;;;;;;8.68;100.00;99784.69;4969442;28;20543;-84
2022/12/31 02:35:38;;;;;;;3.30;0.85;;;;;;;8.68;100.00;99779.53;4970571;28;20638;-82
2022/12/31 02:38:11;;;;;;;2.35;0.45;;;;;;;8.66;100.00;99776.03;4970675;28;20871;-81
2022/12/31 02:40:40;;;;;;;1.15;0.50;;;;;;;8.67;100.00;99772.63;4971467;28;20062;-80
2022/12/31 02:43:09;;;;;;;0.85;0.40;;;;;;;8.67;100.00;99782.97;4973486;28;20050;-81
2022/12/31 02:45:43;;;;;;;1.33;0.77;;;;;;;8.67;100.00;99778.66;4971381;28;20600;-78
2022/12/31 02:48:39;;;;;;;1.95;0.30;;;;;;;8.63;100.00;99782.00;4968994;28;20054;-81
2022/12/31 02:51:34;;;;;;;1.05;0.57;;;;;;;8.53;100.00;99768.03;4975852;28;20061;-82
2022/12/31 02:54:19;;;;;;;1.45;0.30;;;;;;;8.62;100.00;99775.13;4969002;28;20039;-80
2022/12/31 02:57:00;;;;;;;1.23;0.70;;;;;;;8.63;100.00;99771.69;4967353;28;20054;-81
2022/12/31 03:02:25;;;;;;;1.55;0.50;;;;;;;8.62;100.00;99789.72;4968116;28;20057;-80
2022/12/31 03:04:56;;;;;;;2.33;0.50;;;;;;;8.62;100.00;99794.88;4970002;28;20058;-80
2022/12/31 03:07:28;;;;;;;1.92;0.43;;;;;;;8.60;100.00;99789.69;4967968;28;20405;-81
2022/12/31 03:09:57;;;;;;;1.00;0.40;;;;;;;8.62;100.00;99782.00;4968418;28;20055;-83
2022/12/31 03:15:20;;;;;;;0.43;0.30;;;;;;;8.62;100.00;99789.72;4977498;28;20112;-82
2022/12/31 03:17:56;;;;;;;2.55;0.45;;;;;;;8.59;100.00;99799.13;4968483;28;20051;-85
2022/12/31 03:23:18;;;;;;;1.98;0.63;;;;;;;8.59;100.00;99813.75;4970827;28;20105;-80
2022/12/31 03:25:46;;;;;;;2.72;1.20;;;;;;;8.57;100.00;99815.41;4970009;28;20046;-81
2022/12/31 03:28:17;;;;;;;2.42;1.48;;;;;;;8.49;100.00;99806.63;4968166;28;20055;-79
2022/12/31 03:30:48;;;;;;;3.40;1.08;;;;;;;8.57;100.00;99821.44;4967570;28;20103;-78
2022/12/31 03:33:19;;;;;;;2.58;0.90;;;;;;;8.58;100.00;99825.75;4973684;28;20394;-78
2022/12/31 03:35:49;;;;;;;2.95;1.38;;;;;;;8.58;100.00;99840.34;4967956;28;20062;-77
2022/12/31 03:38:18;;;;;;;6.25;1.90;;;;;;;8.55;100.00;99837.72;4968583;28;20129;-78
2022/12/31 03:40:49;;;;;;;3.88;2.17;;;;;;;8.58;100.00;99860.97;4968557;28;20055;-81
2022/12/31 03:43:18;;;;;;;4.35;1.88;;;;;;;8.58;100.00;99864.41;4966496;28;20416;-79
2022/12/31 03:45:50;;;;;;;5.40;2.13;;;;;;;8.56;100.00;99870.38;4968479;28;20050;-80
2022/12/31 03:48:21;;;;;;;4.27;1.80;;;;;;;8.58;100.00;99886.75;4969914;28;20416;-81
2022/12/31 03:50:50;;;;;;;6.35;2.40;;;;;;;8.58;100.00;99903.09;4972064;28;20059;-80
2022/12/31 03:53:18;;;;;;;6.32;2.28;;;;;;;8.59;100.00;99899.69;4965181;28;20047;-80
2022/12/31 03:55:52;;;;;;;5.65;2.40;;;;;;;8.62;100.00;99898.03;4966810;28;20043;-81
2022/12/31 03:58:21;;;;;;;4.80;2.50;;;;;;;8.65;100.00;99903.25;4965397;28;20086;-78
2022/12/31 04:00:50;;;;;;;3.92;2.05;;;;;;;8.65;100.00;99913.56;4967425;28;20062;-81
2022/12/31 04:03:20;;;;;;;3.85;2.38;;;;;;;8.63;100.00;99917.81;4965845;28;20179;-80
2022/12/31 04:05:54;;;;;;;4.78;2.28;;;;;;;8.64;100.00;99922.16;4958683;28;20055;-82
2022/12/31 04:08:22;;;;;;;3.50;2.38;;;;;;;8.63;100.00;99921.25;4970752;28;20086;-79
2022/12/31 04:10:51;;;;;;;4.20;1.88;;;;;;;8.64;100.00;99911.84;4967955;28;20070;-79
2022/12/31 04:13:20;;;;;;;4.32;2.40;;;;;;;8.65;100.00;99903.25;4965487;28;20053;-78
2022/12/31 04:15:51;;;;;;;6.65;2.75;;;;;;;8.66;100.00;99905.88;4961769;28;20051;-79
2022/12/31 04:18:21;;;;;;;3.88;2.13;;;;;;;8.66;100.00;99907.56;4967399;28;20161;-81
2022/12/31 04:20:50;;;;;;;4.35;2.00;;;;;;;8.67;100.00;99906.75;4960131;28;20051;-80
2022/12/31 04:23:19;;;;;;;6.25;2.10;;;;;;;8.67;100.00;99902.44;4965284;28;20058;-81
2022/12/31 04:25:47;;;;;;;5.53;1.80;;;;;;;8.65;100.00;99913.56;4964907;28;20656;-80
2022/12/31 04:28:16;;;;;;;4.28;2.08;;;;;;;8.65;100.00;99913.56;4964772;28;20054;-80
2022/12/31 04:30:45;;;;;;;3.80;2.25;;;;;;;8.64;100.00;99901.53;4967993;28;20415;-79
2022/12/31 04:33:13;;;;;;;2.67;1.63;;;;;;;8.69;100.00;99900.78;4968226;28;20047;-76
2022/12/31 04:35:44;;;;;;;5.60;2.25;;;;;;;8.71;100.00;99893.09;4968445;28;20511;-83
2022/12/31 04:38:12;;;;;;;2.85;1.92;;;;;;;8.72;100.00;99893.09;4968739;28;20050;-80
2022/12/31 04:41:15;;;;;;;4.47;2.08;;;;;;;8.70;100.00;99891.31;4969582;28;20479;-80
2022/12/31 04:43:29;;;;;;;3.33;1.83;;;;;;;8.67;100.00;99891.28;4962719;28;20061;-79
2022/12/31 04:46:04;;;;;;;3.47;1.95;;;;;;;8.65;100.00;99895.50;4965884;28;20054;-77
2022/12/31 04:48:33;;;;;;;3.85;2.10;;;;;;;8.65;100.00;99908.41;4967171;28;20771;-78
2022/12/31 04:51:04;;;;;;;2.95;1.60;;;;;;;8.64;100.00;99904.97;4966759;28;20496;-78
2022/12/31 04:53:33;;;;;;;3.17;1.20;;;;;;;8.59;100.00;99909.16;4967233;28;20444;-79
2022/12/31 04:56:02;;;;;;;2.00;1.10;;;;;;;8.59;100.00;99911.72;4966515;28;20456;-79
2022/12/31 04:58:30;;;;;;;2.85;1.40;;;;;;;8.55;100.00;99912.47;4976283;28;20047;-76
2022/12/31 05:00:59;;;;;;;1.95;1.30;;;;;;;8.52;100.00;99921.03;4968002;28;20057;-77
2022/12/31 05:03:28;;;;;;;4.85;1.23;;;;;;;8.51;100.00;99920.97;4966982;28;20516;-77
2022/12/31 05:06:04;;;;;;;2.60;1.20;;;;;;;8.53;100.00;99940.78;4967519;28;20138;-81
2022/12/31 05:08:34;;;;;;;2.38;1.17;;;;;;;8.55;100.00;99949.44;4971456;28;20060;-81
2022/12/31 05:11:02;;;;;;;2.17;1.20;;;;;;;8.56;100.00;99958.91;4970014;28;20637;-79
2022/12/31 05:13:31;;;;;;;5.90;1.35;;;;;;;8.58;100.00;99964.13;4970354;28;20654;-80
2022/12/31 05:16:00;;;;;;;2.00;1.27;;;;;;;8.57;100.00;99975.28;4970184;28;20078;-81
2022/12/31 05:18:29;;;;;;;2.25;1.00;;;;;;;8.56;100.00;99979.53;4971204;28;20054;-80
2022/12/31 05:20:58;;;;;;;3.47;1.50;;;;;;;8.54;100.00;99988.06;4970928;28;20093;-77
2022/12/31 05:23:29;;;;;;;4.40;1.77;;;;;;;8.53;100.00;99997.53;4970065;28;20043;-80
2022/12/31 05:25:58;;;;;;;3.33;1.52;;;;;;;8.50;100.00;99999.16;4971270;28;20550;-82
2022/12/31 05:28:27;;;;;;;1.85;1.20;;;;;;;8.47;100.00;99997.34;4972819;28;20527;-84
2022/12/31 05:30:55;;;;;;;2.47;1.38;;;;;;;8.42;100.00;100010.97;4963798;28;20062;-81
2022/12/31 05:33:24;;;;;;;1.77;1.08;;;;;;;8.39;100.00;100004.00;4972188;28;20109;-81
2022/12/31 05:35:53;;;;;;;2.10;1.00;;;;;;;8.36;100.00;100009.06;4970498;28;20046;-80
2022/12/31 05:38:22;;;;;;;2.53;1.25;;;;;;;8.35;100.00;100007.31;4966900;28;21358;-80
2022/12/31 05:41:00;;;;;;;2.95;1.17;;;;;;;8.30;100.00;100003.75;4969600;28;20961;-79
2022/12/31 05:43:28;;;;;;;2.33;1.30;;;;;;;8.22;100.00;100012.97;4968383;28;20107;-79
2022/12/31 05:45:57;;;;;;;1.95;1.50;;;;;;;8.15;100.00;100010.25;4969617;28;20114;-79
2022/12/31 05:48:26;;;;;;;1.60;1.02;;;;;;;8.17;100.00;100012.84;4968357;28;20130;-82
2022/12/31 05:50:54;;;;;;;1.95;0.93;;;;;;;8.16;100.00;100006.84;4972279;28;20544;-81
2022/12/31 05:53:23;;;;;;;1.33;0.88;;;;;;;8.15;100.00;100010.25;4968658;28;20054;-80
2022/12/31 05:55:53;;;;;;;1.35;0.90;;;;;;;8.16;100.00;100016.28;4970624;28;20038;-85
2022/12/31 05:58:22;;;;;;;1.65;0.68;;;;;;;8.19;100.00;100024.94;4973237;28;20783;-82
2022/12/31 06:00:51;;;;;;;1.33;0.70;;;;;;;8.22;100.00;100020.72;4969717;28;20054;-83
2022/12/31 06:03:20;;;;;;;0.65;0.55;;;;;;;8.25;100.00;100025.97;4968698;28;20130;-83
2022/12/31 06:05:48;;;;;;;1.65;0.68;;;;;;;8.26;100.00;100027.69;4974834;28;20058;-82
2022/12/31 06:08:17;;;;;;;0.68;0.35;;;;;;;8.19;100.00;100032.69;4967486;28;20050;-83
2022/12/31 06:10:45;;;;;;;1.85;0.65;;;;;;;8.16;100.00;100050.66;4969533;28;20058;-80
2022/12/31 06:13:16;;;;;;;1.50;0.50;;;;;;;8.17;100.00;100054.94;4969359;28;20054;-79
2022/12/31 06:15:44;;;;;;;1.13;0.40;;;;;;;8.18;100.00;100072.19;4967110;28;20058;-79
2022/12/31 06:18:13;;;;;;;1.23;0.50;;;;;;;8.22;100.00;100077.41;4971465;28;20749;-84
2022/12/31 06:20:41;;;;;;;3.50;0.45;;;;;;;8.23;100.00;100082.63;4972721;28;20631;-82
2022/12/31 06:23:10;;;;;;;0.45;0.30;;;;;;;8.27;100.00;100079.31;4971261;28;20110;-81
2022/12/31 06:25:38;;;;;;;0.77;0.30;;;;;;;8.26;100.00;100076.66;4969366;28;20062;-82
2022/12/31 06:28:07;;;;;;;1.38;0.40;;;;;;;8.25;100.00;100080.97;4975527;28;20357;-83
2022/12/31 06:30:38;;;;;;;0.43;0.38;;;;;;;8.28;100.00;100087.91;4972475;28;20134;-80
2022/12/31 06:33:06;;;;;;;0.63;0.40;;;;;;;8.25;100.00;100087.81;4972423;28;20381;-82
2022/12/31 06:35:35;;;;;;;0.68;0.40;;;;;;;8.23;100.00;100086.91;4972120;28;20047;-78
2022/12/31 06:38:03;;;;;;;1.02;0.30;;;;;;;8.23;100.00;100099.78;4971090;28;20046;-81
2022/12/31 06:40:32;;;;;;;0.20;0.20;;;;;;;8.20;100.00;100095.44;4969873;28;20058;-81
2022/12/31 06:43:01;;;;;;;3.15;0.40;;;;;;;8.18;100.00;100097.94;4967785;28;20683;-81
2022/12/31 06:45:38;;;;;;;1.98;0.43;;;;;;;8.17;100.00;100098.75;4971137;28;20110;-80
2022/12/31 06:48:08;;;;;;;0.38;0.30;;;;;;;8.16;100.00;100089.28;4968158;28;20047;-79
2022/12/31 06:50:37;;;;;;;0.68;0.30;;;;;;;8.15;100.00;100077.25;4967280;28;20067;-81
2022/12/31 06:53:06;;;;;;;0.68;0.30;;;;;;;8.13;100.00;100078.91;4969995;28;20039;-82
2022/12/31 06:55:35;;;;;;;1.13;0.60;;;;;;;8.08;100.00;100084.75;4967660;28;20611;-82
2022/12/31 06:58:05;;;;;;;0.77;0.40;;;;;;;8.11;100.00;100096.03;4970078;28;20058;-79
2022/12/31 07:00:34;;;;;;;5.65;0.43;;;;;;;8.14;100.00;100111.56;4968804;28;20898;-80
2022/12/31 07:03:17;;;;;;;0.50;0.40;;;;;;;8.19;100.00;100111.69;4968560;28;20602;-79
2022/12/31 07:05:49;;;;;;;0.68;0.40;;;;;;;8.21;100.00;100106.59;4970030;28;20595;-81
2022/12/31 07:08:34;;;;;;;1.52;0.35;;;;;;;8.22;100.00;100109.19;4968124;28;20047;-82
2022/12/31 07:11:11;;;;;;;0.77;0.40;;;;;;;8.21;100.00;100099.72;4969835;28;20129;-82
2022/12/31 07:14:03;;;;;;;0.40;0.32;;;;;;;8.22;100.00;100113.50;4966249;28;20628;-83
2022/12/31 07:16:46;;;;;;;3.50;0.40;;;;;;;8.25;100.00;100123.91;4970799;28;20050;-82
2022/12/31 07:19:29;;;;;;;0.40;0.40;;;;;;;8.23;100.00;100116.13;4961201;28;20039;-78
2022/12/31 07:22:00;;;;;;;1.65;0.43;;;;;;;8.20;100.00;100116.03;4966543;28;20099;-80
2022/12/31 07:24:29;;;;;;;0.47;0.30;;;;;;;8.16;100.00;100109.91;4967632;28;20055;-79
2022/12/31 07:27:32;;;;;;;0.80;0.50;;;;;;;8.17;100.00;100126.25;4969693;28;20066;-80
2022/12/31 07:30:05;;;;;;;1.15;0.30;;;;;;;8.13;100.00;100130.44;4969252;28;20070;-80
2022/12/31 07:33:02;;;;;;;0.63;0.40;;;;;;;8.12;100.00;100131.25;4969069;28;20050;-79
2022/12/31 07:35:43;;;;;;;1.00;0.52;;;;;;;8.10;100.00;100130.34;4952902;28;20059;-79
2022/12/31 07:38:21;;;;;;;0.65;0.40;;;;;;;8.09;100.00;100136.34;4967930;28;20047;-79
2022/12/31 07:40:57;;;;;;;0.55;0.55;;;;;;;8.06;100.00;100138.81;4966026;28;20054;-80
2022/12/31 07:43:34;;;;;;;0.73;0.40;;;;;;;8.05;100.00;100131.91;4967521;28;20154;-80
2022/12/31 07:46:13;;;;;;;0.30;0.20;;;;;;;8.00;100.00;100143.78;4965722;28;20495;-79
2022/12/31 07:48:42;;;;;;;2.35;0.60;;;;;;;8.00;100.00;100132.63;4966721;28;20051;-79
2022/12/31 07:51:20;;;;;;;0.85;0.40;;;;;;;8.01;100.00;100137.78;4966810;28;20051;-80
2022/12/31 07:53:48;;;;;;;2.33;0.40;;;;;;;7.99;100.00;100147.19;4965219;28;20050;-79
2022/12/31 07:56:17;;;;;;;0.90;0.50;;;;;;;7.96;100.00;100152.25;4963372;28;20447;-80
2022/12/31 07:59:08;;;;;;;0.40;0.30;;;;;;;7.94;100.00;100159.91;4970408;28;20950;-79
2022/12/31 08:01:48;;;;;;;1.35;0.60;;;;;;;7.88;100.00;100166.59;4959238;28;20118;-78
2022/12/31 08:04:25;;;;;;;2.08;0.47;;;;;;;7.87;100.00;100159.69;4968845;28;20869;-81
2022/12/31 08:07:03;;;;;;;0.40;0.35;;;;;;;7.81;100.00;100162.06;4962514;28;20048;-80
2022/12/31 08:09:43;;;;;;;0.50;0.50;;;;;;;7.80;100.00;100157.75;4968963;28;20082;-80
2022/12/31 08:12:12;;;;;;;1.02;0.57;;;;;;;7.78;100.00;100157.72;4962786;28;20058;-81
2022/12/31 08:14:45;;;;;;;1.10;0.50;;;;;;;7.73;100.00;100160.13;4969576;28;20050;-79
2022/12/31 08:17:15;;;;;;;2.10;0.50;;;;;;;7.71;100.00;100156.63;4960439;28;20047;-78
2022/12/31 08:19:45;;;;;;;1.20;0.50;;;;;;;7.74;100.00;100158.44;4965412;28;20054;-78
2022/12/31 08:22:35;;;;;;;1.58;0.80;;;;;;;7.66;100.00;100163.34;4966803;28;20074;-81
2022/12/31 08:25:19;;;;;;;1.55;0.65;;;;;;;7.66;100.00;100168.50;4966590;28;20050;-79
2022/12/31 08:28:02;;;;;;;2.55;0.70;;;;;;;7.67;100.00;100177.09;4969123;28;20043;-78
2022/12/31 08:30:40;;;;;;;3.90;1.15;;;;;;;7.65;100.00;100177.06;4968093;28;20104;-78
2022/12/31 08:33:18;;;;;;;1.90;0.88;;;;;;;7.65;100.00;100187.38;4968625;28;20054;-80
2022/12/31 08:35:59;;;;;;;2.90;1.00;;;;;;;7.64;100.00;100193.31;4968467;28;20046;-78
2022/12/31 08:38:36;;;;;;;1.40;0.88;;;;;;;7.61;100.00;100194.94;4967196;28;20051;-77
2022/12/31 08:41:16;;;;;;;1.13;0.85;;;;;;;7.61;100.00;100200.97;4966964;28;20497;-79
2022/12/31 08:43:53;;;;;;;2.15;1.08;;;;;;;7.62;100.00;100200.13;4965851;28;20519;-78
2022/12/31 08:46:28;;;;;;;1.23;0.77;;;;;;;7.61;100.00;100206.09;4968118;28;20055;-78
2022/12/31 08:48:57;;;;;;;1.80;1.00;;;;;;;7.58;100.00;100205.13;4966312;28;20051;-79
2022/12/31 08:51:27;;;;;;;1.48;1.02;;;;;;;7.58;100.00;100208.56;4970229;28;20057;-77
2022/12/31 08:53:58;;;;;;;1.30;0.90;;;;;;;7.58;100.00;100206.00;4967156;28;20069;-77
2022/12/31 08:56:32;;;;;;;1.13;0.93;;;;;;;7.60;100.00;100208.63;4962812;28;20727;-78
2022/12/31 08:59:11;;;;;;;1.55;0.88;;;;;;;7.62;100.00;100205.28;4968036;28;20055;-79
2022/12/31 09:01:51;;;;;;;4.32;1.33;;;;;;;7.65;100.00;100201.91;4964384;28;20053;-79
2022/12/31 09:04:29;;;;;;;1.58;1.10;;;;;;;7.60;100.00;100206.03;4969232;28;20126;-78
2022/12/31 09:07:01;;;;;;;1.90;1.13;;;;;;;7.60;100.00;100209.50;4960316;28;20109;-78
2022/12/31 09:09:43;;;;;;;2.58;1.55;;;;;;;7.60;100.00;100206.91;4973718;28;20051;-77
2022/12/31 09:12:16;;;;;;;1.75;0.90;;;;;;;7.62;100.00;100207.84;4964198;28;20527;-77
2022/12/31 09:14:48;;;;;;;2.35;0.90;;;;;;;7.63;100.00;100199.31;4960260;28;20050;-78
2022/12/31 09:17:43;;;;;;;2.50;1.33;;;;;;;7.61;100.00;100200.97;4965958;28;20088;-78
2022/12/31 09:20:18;;;;;;;2.35;1.10;;;;;;;7.68;100.00;100214.91;4965858;28;20047;-77
2022/12/31 09:22:47;;;;;;;2.55;1.25;;;;;;;7.70;100.00;100218.41;4968587;28;20051;-77
2022/12/31 09:25:19;;;;;;;1.92;0.93;;;;;;;7.70;100.00;100216.72;4969153;28;20047;-78
2022/12/31 09:27:58;;;;;;;2.30;1.25;;;;;;;7.68;100.00;100233.81;4968902;28;20054;-77
2022/12/31 09:30:31;;;;;;;1.77;1.30;;;;;;;7.65;100.00;100233.72;4961516;28;20138;-77
2022/12/31 09:33:08;;;;;;;2.83;1.33;;;;;;;7.65;100.00;100232.81;4963648;28;20489;-78
2022/12/31 09:35:44;;;;;;;2.58;1.50;;;;;;;7.65;100.00;100240.53;4968173;28;20059;-77
2022/12/31 09:38:20;;;;;;;1.73;1.20;;;;;;;7.64;100.00;100239.66;4963979;28;20044;-79
2022/12/31 09:41:05;;;;;;;3.50;1.52;;;;;;;7.66;100.00;100232.00;4967140;28;20699;-78
2022/12/31 09:44:08;;;;;;;2.00;1.45;;;;;;;7.66;100.00;100230.31;4966645;28;20103;-78
2022/12/31 09:47:09;;;;;;;2.50;1.40;;;;;;;7.72;100.00;100242.50;4969981;28;20051;-78
2022/12/31 09:50:19;;;;;;;2.78;1.70;;;;;;;7.74;100.00;100256.28;4971965;28;20504;-79
2022/12/31 09:53:09;;;;;;;3.10;1.55;;;;;;;7.79;100.00;100256.44;4969626;28;20062;-78
2022/12/31 09:55:46;;;;;;;2.17;1.50;;;;;;;7.80;100.00;100256.50;4973525;28;20047;-79
2022/12/31 09:58:38;;;;;;;1.73;1.25;;;;;;;7.82;100.00;100256.56;4967831;28;20050;-78
2022/12/31 10:01:22;;;;;;;1.60;1.50;;;;;;;7.81;100.00;100259.94;4969673;28;20139;-78
2022/12/31 10:04:29;;;;;;;3.83;1.90;;;;;;;7.81;100.00;100259.94;4972031;28;20047;-79
2022/12/31 10:07:09;;;;;;;3.58;2.05;;;;;;;7.85;100.00;100266.94;4961438;28;20054;-79
2022/12/31 10:09:54;;;;;;;3.03;1.58;;;;;;;7.88;100.00;100278.25;4963335;28;20547;-77
2022/12/31 10:13:02;;;;;;;2.30;1.50;;;;;;;7.89;100.00;100290.28;4970189;28;20058;-79
2022/12/31 10:15:53;;;;;;;4.35;1.77;;;;;;;7.90;100.00;100288.56;4939932;28;20050;-78
2022/12/31 10:18:36;;;;;;;3.25;2.13;;;;;;;7.85;100.00;100297.88;4970809;28;20639;-78
2022/12/31 10:21:11;;;;;;;;;;;;;;;7.80;100.00;100292.56;4970293;28;20591;-78
2022/12/31 10:24:05;;;;;;;4.22;2.28;;;;;;;7.78;100.00;100291.63;4971323;28;19985;-77
2022/12/31 10:26:58;;;;;;;3.25;2.13;;;;;;;7.75;100.00;100299.25;4971440;28;20142;-78
2022/12/31 10:29:35;;;;;;;3.30;1.90;;;;;;;7.68;100.00;100300.75;4969851;28;20059;-80
2022/12/31 10:32:17;;;;;;;2.90;1.73;;;;;;;7.67;100.00;100295.53;4969043;28;20885;-78
2022/12/31 10:35:02;;;;;;;2.83;2.30;;;;;;;7.67;100.00;100293.88;4968123;28;20543;-77
2022/12/31 10:37:39;;;;;;;3.58;2.33;;;;;;;7.65;100.00;100308.38;4968915;28;20140;-79
2022/12/31 10:40:20;;;;;;;4.15;2.28;;;;;;;7.65;100.00;100310.97;4964866;28;20047;-77
2022/12/31 10:43:27;;;;;;;6.60;2.70;;;;;;;7.68;100.00;100318.78;4970560;28;20043;-77
2022/12/31 10:46:34;;;;;;;2.97;1.67;;;;;;;7.68;100.00;100318.78;4963881;28;20050;-78
2022/12/31 10:49:38;;;;;;;5.25;2.20;;;;;;;7.68;100.00;100326.50;4948681;28;20054;-79
2022/12/31 10:52:51;;;;;;;3.88;2.08;;;;;;;7.68;100.00;100329.09;4968998;28;20605;-78
2022/12/31 10:55:52;;;;;;;3.22;2.22;;;;;;;7.65;100.00;100334.13;4929329;29;20063;-77
2022/12/31 10:58:46;;;;;;;5.03;1.92;;;;;;;7.67;100.00;100334.16;4926374;29;20066;-78
2022/12/31 11:01:21;;;;;;;3.55;1.83;;;;;;;7.69;100.00;100345.41;4966795;28;20047;-78
2022/12/31 11:04:24;;;;;;;2.13;1.55;;;;;;;7.70;100.00;100355.75;4968570;28;20055;-77
2022/12/31 11:07:29;;;;;;;4.10;1.58;;;;;;;7.73;100.00;100355.84;4968517;28;20054;-78
2022/12/31 11:10:21;;;;;;;1.77;1.50;;;;;;;7.76;100.00;100355.09;4968541;28;20398;-77
2022/12/31 11:13:18;;;;;;;3.65;1.58;;;;;;;7.78;100.00;100357.72;4966791;28;20059;-77
2022/12/31 11:16:07;;;;;;;4.25;1.50;;;;;;;7.72;100.00;100354.13;4967172;28;20053;-81
2022/12/31 11:18:48;;;;;;;2.08;1.27;;;;;;;7.72;100.00;100358.41;4968015;28;20165;-76
2022/12/31 11:21:26;;;;;;;1.52;1.10;;;;;;;7.73;100.00;100355.84;4967881;28;20094;-77
2022/12/31 11:24:06;;;;;;;1.85;1.17;;;;;;;7.70;100.00;100357.47;4969311;28;20507;-77
2022/12/31 11:26:49;;;;;;;2.90;1.52;;;;;;;7.63;100.00;100353.81;4971933;28;20050;-79
2022/12/31 11:29:37;;;;;;;3.17;1.08;;;;;;;7.59;100.00;100362.25;4964973;28;20066;-79
2022/12/31 11:32:14;;;;;;;2.10;1.40;;;;;;;7.61;100.00;100360.59;4965636;28;20133;-77
2022/12/31 11:35:23;;;;;;;2.80;1.50;;;;;;;7.59;100.00;100367.38;4963427;28;20106;-77
2022/12/31 11:37:55;;;;;;;3.90;1.52;;;;;;;7.61;100.00;100365.75;4942049;28;20497;-78
2022/12/31 11:40:37;;;;;;;3.20;1.80;;;;;;;7.51;100.00;100350.78;4966682;28;20066;-77
2022/12/31 11:43:21;;;;;;;3.17;1.58;;;;;;;7.57;100.00;100363.88;4966930;28;20109;-79
2022/12/31 11:46:10;;;;;;;4.10;2.28;;;;;;;7.56;100.00;100362.13;4967771;28;20437;-78
2022/12/31 11:48:47;;;;;;;4.47;2.33;;;;;;;7.55;100.00;100355.22;4968219;28;20512;-77
2022/12/31 11:51:33;;;;;;;4.00;2.05;;;;;;;7.48;100.00;100354.13;4970041;28;20138;-82
2022/12/31 11:54:30;;;;;;;2.78;2.10;;;;;;;7.51;100.00;100348.19;4969003;28;20050;-77
2022/12/31 11:57:09;;;;;;;2.97;2.10;;;;;;;7.50;100.00;100354.19;4966644;28;20058;-77
2022/12/31 11:59:37;;;;;;;3.75;2.17;;;;;;;7.52;100.00;100349.97;4967959;28;20050;-77
2022/12/31 12:02:22;;;;;;;3.33;1.40;;;;;;;7.53;100.00;100356.88;4964782;28;20051;-77
2022/12/31 12:04:51;;;;;;;3.72;2.00;;;;;;;7.54;100.00;100363.78;4964768;28;20532;-79
2022/12/31 12:07:22;;;;;;;2.28;1.30;;;;;;;7.53;100.00;100364.59;4962135;28;20042;-79
2022/12/31 12:09:53;;;;;;;2.78;1.60;;;;;;;7.55;100.00;100361.25;4966380;28;20054;-77
2022/12/31 12:12:23;;;;;;;3.50;1.65;;;;;;;7.53;100.00;100356.88;4964830;28;20047;-77
2022/12/31 12:14:54;;;;;;;1.38;0.90;;;;;;;7.57;100.00;100351.00;4965784;28;20468;-77
2022/12/31 12:17:31;;;;;;;2.67;1.13;;;;;;;7.60;100.00;100358.81;4963680;28;20548;-76
2022/12/31 12:20:03;;;;;;;2.38;1.40;;;;;;;7.62;100.00;100364.03;4965633;28;20102;-77